sensor_id;sensor_type;location;lat;lon;timestamp;pressure;altitude;pressure_sealevel;temperature;humidity
78643;BME280;67954;47.618;17.606;2023-04-24T00:00:10;99309.50;;;15.12;60.09
78643;BME280;67954;47.618;17.606;2023-04-24T00:00:42;99308.84;;;15.10;60.70
78643;BME280;67954;47.618;17.606;2023-04-24T00:01:15;99306.16;;;15.10;61.11
78643;BME280;67954;47.618;17.606;2023-04-24T00:01:47;99303.63;;;15.09;61.38
78643;BME280;67954;47.618;17.606;2023-04-24T00:02:19;99303.44;;;15.10;60.57
78643;BME280;67954;47.618;17.606;2023-04-24T00:02:50;99310.53;;;15.11;60.29
78643;BME280;67954;47.618;17.606;2023-04-24T00:03:20;99309.75;;;15.17;60.35
78643;BME280;67954;47.618;17.606;2023-04-24T00:03:52;99303.50;;;15.17;60.13
78643;BME280;67954;47.618;17.606;2023-04-24T00:04:23;99292.22;;;15.13;60.87
78643;BME280;67954;47.618;17.606;2023-04-24T00:04:56;99298.09;;;15.17;60.42
78643;BME280;67954;47.618;17.606;2023-04-24T00:05:27;99297.63;;;15.13;59.99
78643;BME280;67954;47.618;17.606;2023-04-24T00:05:58;99297.06;;;15.18;59.30
78643;BME280;67954;47.618;17.606;2023-04-24T00:06:31;99300.38;;;15.20;58.04
78643;BME280;67954;47.618;17.606;2023-04-24T00:07:04;99292.25;;;15.20;57.30
78643;BME280;67954;47.618;17.606;2023-04-24T00:07:37;99292.03;;;15.21;57.30
78643;BME280;67954;47.618;17.606;2023-04-24T00:08:08;99297.06;;;15.24;56.90
78643;BME280;67954;47.618;17.606;2023-04-24T00:08:39;99297.25;;;15.23;56.48
78643;BME280;67954;47.618;17.606;2023-04-24T00:09:10;99296.22;;;15.24;56.16
78643;BME280;67954;47.618;17.606;2023-04-24T00:09:42;99292.28;;;15.26;56.42
78643;BME280;67954;47.618;17.606;2023-04-24T00:10:12;99288.94;;;15.24;56.95
78643;BME280;67954;47.618;17.606;2023-04-24T00:10:43;99299.78;;;15.24;57.49
78643;BME280;67954;47.618;17.606;2023-04-24T00:11:15;99289.78;;;15.25;57.02
78643;BME280;67954;47.618;17.606;2023-04-24T00:11:46;99292.50;;;15.25;56.43
78643;BME280;67954;47.618;17.606;2023-04-24T00:12:17;99291.66;;;15.24;55.98
78643;BME280;67954;47.618;17.606;2023-04-24T00:12:50;99290.63;;;15.25;56.23
78643;BME280;67954;47.618;17.606;2023-04-24T00:13:21;99293.97;;;15.27;55.68
78643;BME280;67954;47.618;17.606;2023-04-24T00:13:52;99291.47;;;15.26;55.75
78643;BME280;67954;47.618;17.606;2023-04-24T00:14:24;99290.44;;;15.27;55.51
78643;BME280;67954;47.618;17.606;2023-04-24T00:14:54;99284.81;;;15.28;55.50
78643;BME280;67954;47.618;17.606;2023-04-24T00:15:25;99283.16;;;15.27;55.35
78643;BME280;67954;47.618;17.606;2023-04-24T00:15:57;99285.00;;;15.27;55.26
78643;BME280;67954;47.618;17.606;2023-04-24T00:16:27;99286.03;;;15.26;55.55
78643;BME280;67954;47.618;17.606;2023-04-24T00:16:58;99278.75;;;15.26;55.85
78643;BME280;67954;47.618;17.606;2023-04-24T00:17:30;99285.22;;;15.25;56.14
78643;BME280;67954;47.618;17.606;2023-04-24T00:18:01;99277.09;;;15.25;56.15
78643;BME280;67954;47.618;17.606;2023-04-24T00:18:32;99277.72;;;15.27;55.99
78643;BME280;67954;47.618;17.606;2023-04-24T00:19:04;99278.38;;;15.29;55.62
78643;BME280;67954;47.618;17.606;2023-04-24T00:19:37;99277.34;;;15.30;55.63
78643;BME280;67954;47.618;17.606;2023-04-24T00:20:08;99273.59;;;15.31;55.30
78643;BME280;67954;47.618;17.606;2023-04-24T00:20:42;99274.81;;;15.29;56.08
78643;BME280;67954;47.618;17.606;2023-04-24T00:21:14;99274.38;;;15.25;55.64
78643;BME280;67954;47.618;17.606;2023-04-24T00:21:45;99274.59;;;15.24;54.87
78643;BME280;67954;47.618;17.606;2023-04-24T00:22:17;99278.97;;;15.25;55.59
78643;BME280;67954;47.618;17.606;2023-04-24T00:22:47;99276.91;;;15.27;55.80
78643;BME280;67954;47.618;17.606;2023-04-24T00:23:19;99279.78;;;15.25;55.86
78643;BME280;67954;47.618;17.606;2023-04-24T00:23:50;99278.13;;;15.24;56.01
78643;BME280;67954;47.618;17.606;2023-04-24T00:24:21;99271.25;;;15.22;55.94
78643;BME280;67954;47.618;17.606;2023-04-24T00:24:53;99274.59;;;15.24;56.22
78643;BME280;67954;47.618;17.606;2023-04-24T00:25:25;99275.63;;;15.23;56.57
78643;BME280;67954;47.618;17.606;2023-04-24T00:25:55;99272.06;;;15.22;56.86
78643;BME280;67954;47.618;17.606;2023-04-24T00:26:26;99273.75;;;15.23;56.87
78643;BME280;67954;47.618;17.606;2023-04-24T00:26:58;99270.00;;;15.24;56.93
78643;BME280;67954;47.618;17.606;2023-04-24T00:27:32;99268.13;;;15.25;56.79
78643;BME280;67954;47.618;17.606;2023-04-24T00:28:04;99261.44;;;15.21;57.08
78643;BME280;67954;47.618;17.606;2023-04-24T00:28:36;99266.88;;;15.21;56.85
78643;BME280;67954;47.618;17.606;2023-04-24T00:29:06;99268.13;;;15.18;57.20
78643;BME280;67954;47.618;17.606;2023-04-24T00:29:37;99262.47;;;15.20;56.73
78643;BME280;67954;47.618;17.606;2023-04-24T00:30:09;99259.31;;;15.10;56.61
78643;BME280;67954;47.618;17.606;2023-04-24T00:30:40;99265.75;;;15.09;57.36
78643;BME280;67954;47.618;17.606;2023-04-24T00:31:11;99262.41;;;15.07;57.03
78643;BME280;67954;47.618;17.606;2023-04-24T00:31:43;99255.16;;;15.07;57.49
78643;BME280;67954;47.618;17.606;2023-04-24T00:32:14;99258.47;;;15.02;56.77
78643;BME280;67954;47.618;17.606;2023-04-24T00:32:45;99263.88;;;15.02;56.26
78643;BME280;67954;47.618;17.606;2023-04-24T00:33:16;99263.88;;;15.02;56.55
78643;BME280;67954;47.618;17.606;2023-04-24T00:33:47;99256.19;;;15.06;56.67
78643;BME280;67954;47.618;17.606;2023-04-24T00:34:18;99258.88;;;14.99;56.95
78643;BME280;67954;47.618;17.606;2023-04-24T00:34:50;99256.34;;;14.98;56.79
78643;BME280;67954;47.618;17.606;2023-04-24T00:35:21;99257.59;;;14.95;56.39
78643;BME280;67954;47.618;17.606;2023-04-24T00:35:51;99255.91;;;14.94;56.59
78643;BME280;67954;47.618;17.606;2023-04-24T00:36:25;99257.59;;;14.95;56.58
78643;BME280;67954;47.618;17.606;2023-04-24T00:36:55;99257.59;;;14.95;56.76
78643;BME280;67954;47.618;17.606;2023-04-24T00:37:26;99251.34;;;14.95;57.34
78643;BME280;67954;47.618;17.606;2023-04-24T00:37:59;99250.50;;;14.94;58.26
78643;BME280;67954;47.618;17.606;2023-04-24T00:38:29;99257.16;;;14.92;57.93
78643;BME280;67954;47.618;17.606;2023-04-24T00:39:00;99255.88;;;14.88;57.78
78643;BME280;67954;47.618;17.606;2023-04-24T00:39:33;99252.75;;;14.84;58.28
78643;BME280;67954;47.618;17.606;2023-04-24T00:40:05;99247.13;;;14.86;57.98
78643;BME280;67954;47.618;17.606;2023-04-24T00:40:36;99245.47;;;14.85;58.66
78643;BME280;67954;47.618;17.606;2023-04-24T00:41:08;99249.81;;;14.79;59.02
78643;BME280;67954;47.618;17.606;2023-04-24T00:41:39;99250.84;;;14.78;58.96
78643;BME280;67954;47.618;17.606;2023-04-24T00:42:10;99245.44;;;14.78;59.30
78643;BME280;67954;47.618;17.606;2023-04-24T00:42:43;99252.06;;;14.76;58.97
78643;BME280;67954;47.618;17.606;2023-04-24T00:43:15;99252.72;;;14.78;59.05
78643;BME280;67954;47.618;17.606;2023-04-24T00:43:46;99246.88;;;14.74;58.64
78643;BME280;67954;47.618;17.606;2023-04-24T00:44:18;99245.38;;;14.72;58.91
78643;BME280;67954;47.618;17.606;2023-04-24T00:44:49;99250.22;;;14.76;59.11
78643;BME280;67954;47.618;17.606;2023-04-24T00:45:20;99250.84;;;14.78;59.23
78643;BME280;67954;47.618;17.606;2023-04-24T00:45:51;99240.22;;;14.77;58.05
78643;BME280;67954;47.618;17.606;2023-04-24T00:46:23;99244.81;;;14.76;57.89
78643;BME280;67954;47.618;17.606;2023-04-24T00:46:54;99242.94;;;14.77;59.11
78643;BME280;67954;47.618;17.606;2023-04-24T00:47:25;99245.63;;;14.77;59.67
78643;BME280;67954;47.618;17.606;2023-04-24T00:47:57;99242.75;;;14.78;59.60
78643;BME280;67954;47.618;17.606;2023-04-24T00:48:29;99241.91;;;14.78;58.96
78643;BME280;67954;47.618;17.606;2023-04-24T00:49:02;99240.81;;;14.72;57.25
78643;BME280;67954;47.618;17.606;2023-04-24T00:49:33;99241.66;;;14.73;57.94
78643;BME280;67954;47.618;17.606;2023-04-24T00:50:05;99245.63;;;14.77;58.36
78643;BME280;67954;47.618;17.606;2023-04-24T00:50:38;99241.25;;;14.76;59.08
78643;BME280;67954;47.618;17.606;2023-04-24T00:51:08;99238.56;;;14.76;59.04
78643;BME280;67954;47.618;17.606;2023-04-24T00:51:39;99236.06;;;14.74;58.61
78643;BME280;67954;47.618;17.606;2023-04-24T00:52:16;99235.41;;;14.72;59.38
78643;BME280;67954;47.618;17.606;2023-04-24T00:52:48;99244.34;;;14.73;59.07
78643;BME280;67954;47.618;17.606;2023-04-24T00:53:20;99238.75;;;14.74;59.05
78643;BME280;67954;47.618;17.606;2023-04-24T00:53:51;99239.59;;;14.75;59.41
78643;BME280;67954;47.618;17.606;2023-04-24T00:54:22;99238.94;;;14.73;59.59
78643;BME280;67954;47.618;17.606;2023-04-24T00:54:54;99238.31;;;14.71;56.39
78643;BME280;67954;47.618;17.606;2023-04-24T00:55:25;99241.00;;;14.71;56.68
78643;BME280;67954;47.618;17.606;2023-04-24T00:55:56;99238.31;;;14.71;57.90
78643;BME280;67954;47.618;17.606;2023-04-24T00:56:29;99237.47;;;14.70;58.09
78643;BME280;67954;47.618;17.606;2023-04-24T00:57:00;99238.13;;;14.72;58.43
78643;BME280;67954;47.618;17.606;2023-04-24T00:57:31;99234.56;;;14.72;58.73
78643;BME280;67954;47.618;17.606;2023-04-24T00:58:04;99236.00;;;14.68;58.80
78643;BME280;67954;47.618;17.606;2023-04-24T00:58:36;99235.38;;;14.65;59.66
78643;BME280;67954;47.618;17.606;2023-04-24T00:59:08;99237.25;;;14.65;58.91
78643;BME280;67954;47.618;17.606;2023-04-24T00:59:40;99228.72;;;14.68;58.54
78643;BME280;67954;47.618;17.606;2023-04-24T01:00:12;99229.16;;;14.65;59.12
78643;BME280;67954;47.618;17.606;2023-04-24T01:00:44;99230.38;;;14.62;59.05
78643;BME280;67954;47.618;17.606;2023-04-24T01:01:19;99238.28;;;14.64;58.52
78643;BME280;67954;47.618;17.606;2023-04-24T01:01:51;99233.28;;;14.68;57.59
78643;BME280;67954;47.618;17.606;2023-04-24T01:02:22;99235.81;;;14.69;57.65
78643;BME280;67954;47.618;17.606;2023-04-24T01:02:53;99232.69;;;14.65;58.50
78643;BME280;67954;47.618;17.606;2023-04-24T01:03:28;99233.53;;;14.66;59.31
78643;BME280;67954;47.618;17.606;2023-04-24T01:04:00;99237.47;;;14.70;59.13
78643;BME280;67954;47.618;17.606;2023-04-24T01:04:32;99232.69;;;14.65;58.82
78643;BME280;67954;47.618;17.606;2023-04-24T01:05:04;99235.38;;;14.65;58.29
78643;BME280;67954;47.618;17.606;2023-04-24T01:05:36;99234.97;;;14.69;58.26
78643;BME280;67954;47.618;17.606;2023-04-24T01:06:07;99235.81;;;14.69;58.68
78643;BME280;67954;47.618;17.606;2023-04-24T01:06:40;99235.16;;;14.67;58.42
78643;BME280;67954;47.618;17.606;2023-04-24T01:07:13;99240.38;;;14.69;57.56
78643;BME280;67954;47.618;17.606;2023-04-24T01:07:45;99238.75;;;14.74;56.75
78643;BME280;67954;47.618;17.606;2023-04-24T01:08:19;99240.44;;;14.75;57.24
78643;BME280;67954;47.618;17.606;2023-04-24T01:08:52;99240.03;;;14.78;57.68
78643;BME280;67954;47.618;17.606;2023-04-24T01:09:23;99236.50;;;14.78;57.57
78643;BME280;67954;47.618;17.606;2023-04-24T01:09:55;99240.03;;;14.78;57.77
78643;BME280;67954;47.618;17.606;2023-04-24T01:10:27;99230.91;;;14.79;59.38
78643;BME280;67954;47.618;17.606;2023-04-24T01:11:03;99231.28;;;14.76;58.75
78643;BME280;67954;47.618;17.606;2023-04-24T01:11:34;99240.88;;;14.79;58.19
78643;BME280;67954;47.618;17.606;2023-04-24T01:12:06;99230.06;;;14.79;57.97
78643;BME280;67954;47.618;17.606;2023-04-24T01:12:37;99235.47;;;14.79;57.64
78643;BME280;67954;47.618;17.606;2023-04-24T01:13:08;99226.31;;;14.80;57.28
78643;BME280;67954;47.618;17.606;2023-04-24T01:13:41;99231.75;;;14.86;56.02
78643;BME280;67954;47.618;17.606;2023-04-24T01:14:12;99239.28;;;14.91;55.92
78643;BME280;67954;47.618;17.606;2023-04-24T01:14:43;99230.72;;;14.94;56.03
78643;BME280;67954;47.618;17.606;2023-04-24T01:15:15;99237.22;;;14.93;55.96
78643;BME280;67954;47.618;17.606;2023-04-24T01:15:47;99236.78;;;14.96;53.96
78643;BME280;67954;47.618;17.606;2023-04-24T01:16:18;99234.31;;;15.01;54.12
78643;BME280;67954;47.618;17.606;2023-04-24T01:16:51;99231.22;;;15.04;54.31
78643;BME280;67954;47.618;17.606;2023-04-24T01:17:21;99230.38;;;15.04;53.69
78643;BME280;67954;47.618;17.606;2023-04-24T01:17:52;99229.13;;;15.06;54.34
78643;BME280;67954;47.618;17.606;2023-04-24T01:18:24;99225.00;;;15.10;52.67
78643;BME280;67954;47.618;17.606;2023-04-24T01:18:55;99227.28;;;15.13;53.38
78643;BME280;67954;47.618;17.606;2023-04-24T01:19:26;99223.16;;;15.17;53.62
78643;BME280;67954;47.618;17.606;2023-04-24T01:19:57;99231.69;;;15.21;53.06
78643;BME280;67954;47.618;17.606;2023-04-24T01:20:30;99226.28;;;15.21;52.89
78643;BME280;67954;47.618;17.606;2023-04-24T01:21:04;99219.84;;;15.22;52.33
78643;BME280;67954;47.618;17.606;2023-04-24T01:21:36;99223.38;;;15.22;51.87
78643;BME280;67954;47.618;17.606;2023-04-24T01:22:10;99223.81;;;15.26;52.38
78643;BME280;67954;47.618;17.606;2023-04-24T01:22:42;99226.31;;;15.27;53.04
78643;BME280;67954;47.618;17.606;2023-04-24T01:23:13;99226.50;;;15.26;53.69
78643;BME280;67954;47.618;17.606;2023-04-24T01:23:46;99221.31;;;15.24;51.95
78643;BME280;67954;47.618;17.606;2023-04-24T01:24:16;99222.56;;;15.28;51.99
78643;BME280;67954;47.618;17.606;2023-04-24T01:24:49;99219.66;;;15.30;51.70
78643;BME280;67954;47.618;17.606;2023-04-24T01:25:21;99226.50;;;15.26;52.31
78643;BME280;67954;47.618;17.606;2023-04-24T01:25:52;99216.13;;;15.29;51.60
78643;BME280;67954;47.618;17.606;2023-04-24T01:26:23;99229.22;;;15.32;51.59
78643;BME280;67954;47.618;17.606;2023-04-24T01:26:55;99220.28;;;15.32;50.74
78643;BME280;67954;47.618;17.606;2023-04-24T01:27:27;99226.53;;;15.32;51.01
78643;BME280;67954;47.618;17.606;2023-04-24T01:27:59;99221.34;;;15.31;50.47
78643;BME280;67954;47.618;17.606;2023-04-24T01:28:30;99227.16;;;15.34;51.31
78643;BME280;67954;47.618;17.606;2023-04-24T01:29:02;99225.53;;;15.40;51.70
78643;BME280;67954;47.618;17.606;2023-04-24T01:29:33;99227.41;;;15.40;51.23
78643;BME280;67954;47.618;17.606;2023-04-24T01:30:06;99227.19;;;15.41;51.84
78643;BME280;67954;47.618;17.606;2023-04-24T01:30:37;99229.25;;;15.39;52.01
78643;BME280;67954;47.618;17.606;2023-04-24T01:31:09;99226.78;;;15.44;52.13
78643;BME280;67954;47.618;17.606;2023-04-24T01:31:40;99220.94;;;15.47;52.26
78643;BME280;67954;47.618;17.606;2023-04-24T01:32:11;99233.22;;;15.36;52.44
78643;BME280;67954;47.618;17.606;2023-04-24T01:32:43;99226.94;;;15.29;52.19
78643;BME280;67954;47.618;17.606;2023-04-24T01:33:15;99232.31;;;15.23;53.49
78643;BME280;67954;47.618;17.606;2023-04-24T01:33:47;99238.97;;;15.14;52.58
78643;BME280;67954;47.618;17.606;2023-04-24T01:34:19;99222.72;;;15.14;52.34
78643;BME280;67954;47.618;17.606;2023-04-24T01:34:50;99230.19;;;15.12;52.86
78643;BME280;67954;47.618;17.606;2023-04-24T01:35:21;99229.16;;;15.13;52.88
78643;BME280;67954;47.618;17.606;2023-04-24T01:35:53;99227.69;;;15.10;52.81
78643;BME280;67954;47.618;17.606;2023-04-24T01:36:27;99219.63;;;15.17;52.46
78643;BME280;67954;47.618;17.606;2023-04-24T01:36:59;99231.09;;;15.19;52.08
78643;BME280;67954;47.618;17.606;2023-04-24T01:37:32;99223.56;;;15.14;52.36
78643;BME280;67954;47.618;17.606;2023-04-24T01:38:04;99226.91;;;15.16;53.23
78643;BME280;67954;47.618;17.606;2023-04-24T01:38:35;99226.06;;;15.22;52.78
78643;BME280;67954;47.618;17.606;2023-04-24T01:39:07;99217.75;;;15.24;53.00
78643;BME280;67954;47.618;17.606;2023-04-24T01:39:38;99225.69;;;15.25;52.86
78643;BME280;67954;47.618;17.606;2023-04-24T01:40:09;99221.94;;;15.26;53.46
78643;BME280;67954;47.618;17.606;2023-04-24T01:40:41;99234.03;;;15.30;52.86
78643;BME280;67954;47.618;17.606;2023-04-24T01:41:12;99226.13;;;15.29;52.47
78643;BME280;67954;47.618;17.606;2023-04-24T01:41:43;99219.84;;;15.22;51.37
78643;BME280;67954;47.618;17.606;2023-04-24T01:42:14;99222.53;;;15.22;51.30
78643;BME280;67954;47.618;17.606;2023-04-24T01:42:46;99231.09;;;15.25;52.28
78643;BME280;67954;47.618;17.606;2023-04-24T01:43:18;99224.84;;;15.25;51.54
78643;BME280;67954;47.618;17.606;2023-04-24T01:43:49;99219.25;;;15.33;51.88
78643;BME280;67954;47.618;17.606;2023-04-24T01:44:20;99215.09;;;15.30;51.51
78643;BME280;67954;47.618;17.606;2023-04-24T01:44:53;99219.88;;;15.35;51.29
78643;BME280;67954;47.618;17.606;2023-04-24T01:45:25;99219.25;;;15.33;52.13
78643;BME280;67954;47.618;17.606;2023-04-24T01:45:55;99212.81;;;15.41;52.24
78643;BME280;67954;47.618;17.606;2023-04-24T01:46:27;99216.56;;;15.40;51.40
78643;BME280;67954;47.618;17.606;2023-04-24T01:46:58;99209.44;;;15.32;51.78
78643;BME280;67954;47.618;17.606;2023-04-24T01:47:31;99211.56;;;15.36;51.96
78643;BME280;67954;47.618;17.606;2023-04-24T01:48:03;99218.63;;;15.37;51.34
78643;BME280;67954;47.618;17.606;2023-04-24T01:48:34;99216.38;;;15.41;51.28
78643;BME280;67954;47.618;17.606;2023-04-24T01:49:05;99218.19;;;15.34;51.02
78643;BME280;67954;47.618;17.606;2023-04-24T01:49:38;99219.72;;;15.43;52.04
78643;BME280;67954;47.618;17.606;2023-04-24T01:50:09;99209.72;;;15.44;51.66
78643;BME280;67954;47.618;17.606;2023-04-24T01:50:40;99204.91;;;15.46;51.45
78643;BME280;67954;47.618;17.606;2023-04-24T01:51:12;99214.50;;;15.48;51.07
78643;BME280;67954;47.618;17.606;2023-04-24T01:51:43;99210.97;;;15.48;51.27
78643;BME280;67954;47.618;17.606;2023-04-24T01:52:14;99209.47;;;15.45;51.52
78643;BME280;67954;47.618;17.606;2023-04-24T01:52:48;99207.84;;;15.51;51.55
78643;BME280;67954;47.618;17.606;2023-04-24T01:53:18;99209.09;;;15.48;50.79
78643;BME280;67954;47.618;17.606;2023-04-24T01:53:49;99213.91;;;15.53;50.58
78643;BME280;67954;47.618;17.606;2023-04-24T01:54:21;99206.81;;;15.52;51.47
78643;BME280;67954;47.618;17.606;2023-04-24T01:54:52;99208.28;;;15.54;50.24
78643;BME280;67954;47.618;17.606;2023-04-24T01:55:23;99210.34;;;15.52;50.95
78643;BME280;67954;47.618;17.606;2023-04-24T01:55:54;99209.97;;;15.55;50.81
78643;BME280;67954;47.618;17.606;2023-04-24T01:56:29;99208.50;;;15.59;50.48
78643;BME280;67954;47.618;17.606;2023-04-24T01:56:59;99205.81;;;15.59;50.63
78643;BME280;67954;47.618;17.606;2023-04-24T01:57:31;99209.16;;;15.61;50.51
78643;BME280;67954;47.618;17.606;2023-04-24T01:58:05;99204.38;;;15.63;50.49
78643;BME280;67954;47.618;17.606;2023-04-24T01:58:36;99201.22;;;15.60;50.97
78643;BME280;67954;47.618;17.606;2023-04-24T01:59:07;99207.50;;;15.67;50.66
78643;BME280;67954;47.618;17.606;2023-04-24T01:59:40;99199.81;;;15.70;50.74
78643;BME280;67954;47.618;17.606;2023-04-24T02:00:12;99200.84;;;15.69;50.85
78643;BME280;67954;47.618;17.606;2023-04-24T02:00:43;99199.81;;;15.70;50.63
78643;BME280;67954;47.618;17.606;2023-04-24T02:01:18;99198.75;;;15.65;50.49
78643;BME280;67954;47.618;17.606;2023-04-24T02:01:48;99197.91;;;15.58;50.97
78643;BME280;67954;47.618;17.606;2023-04-24T02:02:19;99197.47;;;15.61;51.00
78643;BME280;67954;47.618;17.606;2023-04-24T02:02:51;99198.53;;;15.66;51.58
78643;BME280;67954;47.618;17.606;2023-04-24T02:03:22;99197.47;;;15.61;51.18
78643;BME280;67954;47.618;17.606;2023-04-24T02:03:53;99201.84;;;15.62;51.62
78643;BME280;67954;47.618;17.606;2023-04-24T02:04:24;99196.66;;;15.60;50.72
78643;BME280;67954;47.618;17.606;2023-04-24T02:04:56;99194.97;;;15.59;51.75
78643;BME280;67954;47.618;17.606;2023-04-24T02:05:27;99199.97;;;15.62;51.11
78643;BME280;67954;47.618;17.606;2023-04-24T02:05:57;99192.50;;;15.64;50.84
78643;BME280;67954;47.618;17.606;2023-04-24T02:06:29;99189.59;;;15.66;50.97
78643;BME280;67954;47.618;17.606;2023-04-24T02:07:01;99197.50;;;15.67;50.85
78643;BME280;67954;47.618;17.606;2023-04-24T02:07:32;99193.75;;;15.68;51.27
78643;BME280;67954;47.618;17.606;2023-04-24T02:08:05;99195.75;;;15.47;51.09
78643;BME280;67954;47.618;17.606;2023-04-24T02:08:36;99192.84;;;15.48;51.43
78643;BME280;67954;47.618;17.606;2023-04-24T02:09:07;99188.47;;;15.47;51.16
78643;BME280;67954;47.618;17.606;2023-04-24T02:09:39;99192.25;;;15.53;52.21
78643;BME280;67954;47.618;17.606;2023-04-24T02:10:10;99192.63;;;15.50;52.17
78643;BME280;67954;47.618;17.606;2023-04-24T02:10:41;99187.22;;;15.50;52.23
78643;BME280;67954;47.618;17.606;2023-04-24T02:11:12;99190.38;;;15.53;52.65
78643;BME280;67954;47.618;17.606;2023-04-24T02:11:43;99186.25;;;15.57;51.40
78643;BME280;67954;47.618;17.606;2023-04-24T02:12:14;99194.31;;;15.51;51.87
78643;BME280;67954;47.618;17.606;2023-04-24T02:12:47;99190.38;;;15.53;51.42
78643;BME280;67954;47.618;17.606;2023-04-24T02:13:18;99188.69;;;15.52;51.68
78643;BME280;67954;47.618;17.606;2023-04-24T02:13:49;99187.28;;;15.56;51.97
78643;BME280;67954;47.618;17.606;2023-04-24T02:14:21;99184.13;;;15.53;50.79
78643;BME280;67954;47.618;17.606;2023-04-24T02:14:52;99186.19;;;15.51;51.77
78643;BME280;67954;47.618;17.606;2023-04-24T02:15:23;99187.84;;;15.45;51.76
78643;BME280;67954;47.618;17.606;2023-04-24T02:15:54;99186.41;;;15.49;51.87
78643;BME280;67954;47.618;17.606;2023-04-24T02:16:25;99186.63;;;15.54;51.71
78643;BME280;67954;47.618;17.606;2023-04-24T02:16:56;99184.91;;;15.47;51.69
78643;BME280;67954;47.618;17.606;2023-04-24T02:17:28;99184.31;;;15.45;51.17
78643;BME280;67954;47.618;17.606;2023-04-24T02:18:01;99182.00;;;15.48;51.69
78643;BME280;67954;47.618;17.606;2023-04-24T02:18:31;99189.50;;;15.46;52.07
78643;BME280;67954;47.618;17.606;2023-04-24T02:19:03;99185.94;;;15.32;52.18
78643;BME280;67954;47.618;17.606;2023-04-24T02:19:34;99179.28;;;15.35;51.71
78643;BME280;67954;47.618;17.606;2023-04-24T02:20:07;99183.03;;;15.34;52.22
78643;BME280;67954;47.618;17.606;2023-04-24T02:20:38;99178.28;;;15.43;52.40
78643;BME280;67954;47.618;17.606;2023-04-24T02:21:10;99178.91;;;15.45;52.51
78643;BME280;67954;47.618;17.606;2023-04-24T02:21:40;99181.19;;;15.41;51.96
78643;BME280;67954;47.618;17.606;2023-04-24T02:22:11;99183.69;;;15.43;52.55
78643;BME280;67954;47.618;17.606;2023-04-24T02:22:43;99184.72;;;15.48;51.90
78643;BME280;67954;47.618;17.606;2023-04-24T02:23:15;99183.06;;;15.47;51.90
78643;BME280;67954;47.618;17.606;2023-04-24T02:23:46;99178.28;;;15.49;51.60
78643;BME280;67954;47.618;17.606;2023-04-24T02:24:17;99180.34;;;15.47;51.81
78643;BME280;67954;47.618;17.606;2023-04-24T02:24:49;99177.84;;;15.46;52.10
78643;BME280;67954;47.618;17.606;2023-04-24T02:25:20;99184.91;;;15.47;51.81
78643;BME280;67954;47.618;17.606;2023-04-24T02:25:51;99182.66;;;15.44;52.01
78643;BME280;67954;47.618;17.606;2023-04-24T02:26:23;99170.16;;;15.43;52.36
78643;BME280;67954;47.618;17.606;2023-04-24T02:26:54;99177.44;;;15.49;52.14
78643;BME280;67954;47.618;17.606;2023-04-24T02:27:26;99170.97;;;15.50;52.32
78643;BME280;67954;47.618;17.606;2023-04-24T02:27:57;99177.66;;;15.54;52.41
78643;BME280;67954;47.618;17.606;2023-04-24T02:28:28;99177.84;;;15.46;52.09
78643;BME280;67954;47.618;17.606;2023-04-24T02:28:59;99178.69;;;15.40;52.29
78643;BME280;67954;47.618;17.606;2023-04-24T02:29:31;99177.44;;;15.42;52.95
78643;BME280;67954;47.618;17.606;2023-04-24T02:30:01;99176.19;;;15.45;52.44
78643;BME280;67954;47.618;17.606;2023-04-24T02:30:33;99178.28;;;15.43;52.46
78643;BME280;67954;47.618;17.606;2023-04-24T02:31:05;99174.53;;;15.44;52.48
78643;BME280;67954;47.618;17.606;2023-04-24T02:31:36;99178.47;;;15.48;52.28
78643;BME280;67954;47.618;17.606;2023-04-24T02:32:07;99167.84;;;15.46;52.37
78643;BME280;67954;47.618;17.606;2023-04-24T02:32:41;99169.13;;;15.44;52.78
78643;BME280;67954;47.618;17.606;2023-04-24T02:33:12;99170.16;;;15.43;51.97
78643;BME280;67954;47.618;17.606;2023-04-24T02:33:43;99173.25;;;15.40;52.62
78643;BME280;67954;47.618;17.606;2023-04-24T02:34:15;99176.56;;;15.35;52.62
78643;BME280;67954;47.618;17.606;2023-04-24T02:34:46;99166.97;;;15.32;52.64
78643;BME280;67954;47.618;17.606;2023-04-24T02:35:17;99172.22;;;15.41;52.30
78643;BME280;67954;47.618;17.606;2023-04-24T02:35:49;99172.84;;;15.43;52.74
78643;BME280;67954;47.618;17.606;2023-04-24T02:36:20;99170.78;;;15.45;52.87
78643;BME280;67954;47.618;17.606;2023-04-24T02:36:51;99165.56;;;15.50;52.69
78643;BME280;67954;47.618;17.606;2023-04-24T02:37:24;99172.84;;;15.43;52.34
78643;BME280;67954;47.618;17.606;2023-04-24T02:37:55;99169.53;;;15.41;52.01
78643;BME280;67954;47.618;17.606;2023-04-24T02:38:27;99164.50;;;15.37;52.97
78643;BME280;67954;47.618;17.606;2023-04-24T02:38:58;99165.13;;;15.46;52.64
78643;BME280;67954;47.618;17.606;2023-04-24T02:39:30;99170.38;;;15.54;52.84
78643;BME280;67954;47.618;17.606;2023-04-24T02:40:00;99169.94;;;15.51;51.98
78643;BME280;67954;47.618;17.606;2023-04-24T02:40:32;99159.97;;;15.51;52.59
78643;BME280;67954;47.618;17.606;2023-04-24T02:41:03;99166.22;;;15.52;52.32
78643;BME280;67954;47.618;17.606;2023-04-24T02:41:36;99172.09;;;15.55;52.11
78643;BME280;67954;47.618;17.606;2023-04-24T02:42:08;99167.84;;;15.46;52.53
78643;BME280;67954;47.618;17.606;2023-04-24T02:42:38;99168.47;;;15.48;52.26
78643;BME280;67954;47.618;17.606;2023-04-24T02:43:09;99164.72;;;15.49;52.13
78643;BME280;67954;47.618;17.606;2023-04-24T02:43:40;99166.59;;;15.49;52.15
78643;BME280;67954;47.618;17.606;2023-04-24T02:44:12;99164.31;;;15.46;52.43
78643;BME280;67954;47.618;17.606;2023-04-24T02:44:43;99159.31;;;15.43;52.61
78643;BME280;67954;47.618;17.606;2023-04-24T02:45:13;99162.88;;;15.50;52.62